Main page
METAR-TAF:

METAR-TAF

Airports :

Milton, Massachusetts, United States

latitude: 42-12-44N, longitude: 071-06-53W, elevation: 630 ft

Current weather observation

The report was made 44 minutes ago, at 14:51 UTC
Wind 16 mph from the Southwest with gusts up to 28 mph
Temperature 55°F
Humidity 88%
Pressure 29.75 in. Hg

METAR: KMQE 101451Z AUTO 22014G24KT 13/11 A2975 RMK AO1 SLP086 T01330111 53012

Time: 10:35 (15:35 UTC)


TAF: missing

Weather observations and forecasts of more than 4000 airports (METAR and TAF reports).

The available stations are represented by yellow and red dots on the map.

Hover mouse over dot to see the name of the station.

Then click to see weather observations and forecasts.

To change the map : click on the green buttons with a black cross to zoom in, on the green button with a dash to zoom out, or on the green arrows for adjacent maps.


METAR-TAF: